createdAt,value
2018-12-23T00:01:08.536Z,3.60
2018-12-23T00:03:36.401Z,3.95
2018-12-23T00:06:03.908Z,3.10
2018-12-23T00:08:31.417Z,3.87
2018-12-23T00:10:58.932Z,3.10
2018-12-23T00:13:26.442Z,3.05
2018-12-23T00:15:53.955Z,2.92
2018-12-23T00:18:21.464Z,3.80
2018-12-23T00:20:48.976Z,3.58
2018-12-23T00:23:16.488Z,3.20
2018-12-23T00:25:44.285Z,3.50
2018-12-23T00:28:12.421Z,3.42
2018-12-23T00:30:39.933Z,3.85
2018-12-23T00:33:07.865Z,4.17
2018-12-23T00:35:35.376Z,3.92
2018-12-23T00:38:03.469Z,3.70
2018-12-23T00:40:31.000Z,4.42
2018-12-23T00:42:58.512Z,3.60
2018-12-23T00:45:26.032Z,4.20
2018-12-23T00:47:53.552Z,4.37
2018-12-23T00:50:21.073Z,3.85
2018-12-23T00:52:48.584Z,4.03
2018-12-23T00:55:16.093Z,4.58
2018-12-23T00:57:43.599Z,3.85
2018-12-23T01:00:11.120Z,4.30
2018-12-23T01:02:38.898Z,4.30
2018-12-23T01:05:06.673Z,4.25
2018-12-23T01:07:34.184Z,4.22
2018-12-23T01:10:02.489Z,4.05
2018-12-23T01:12:30.000Z,4.45
2018-12-23T01:14:57.764Z,4.25
2018-12-23T01:17:25.366Z,4.53
2018-12-23T01:19:52.872Z,4.55
2018-12-23T01:22:20.382Z,4.72
2018-12-23T01:24:47.897Z,4.70
2018-12-23T01:27:15.414Z,4.97
2018-12-23T01:29:43.002Z,5.25
2018-12-23T01:32:10.889Z,5.22
2018-12-23T01:34:38.410Z,5.42
2018-12-23T01:37:07.236Z,5.00
2018-12-23T01:39:34.740Z,5.40
2018-12-23T01:42:02.388Z,4.80
2018-12-23T01:44:29.928Z,5.22
2018-12-23T01:46:57.432Z,5.33
2018-12-23T01:49:24.942Z,5.50
2018-12-23T01:51:52.448Z,4.80
2018-12-23T01:54:19.976Z,4.25
2018-12-23T01:56:47.499Z,4.03
2018-12-23T01:59:15.025Z,4.45
2018-12-23T02:01:43.010Z,5.42
2018-12-23T02:04:10.965Z,4.62
2018-12-23T02:06:38.770Z,5.47
2018-12-23T02:09:06.734Z,4.62
2018-12-23T02:11:34.245Z,4.58
2018-12-23T02:14:02.400Z,5.25
2018-12-23T02:16:29.900Z,4.62
2018-12-23T02:18:57.408Z,4.60
2018-12-23T02:21:24.929Z,4.20
2018-12-23T02:23:52.475Z,4.20
2018-12-23T02:26:19.991Z,4.22
2018-12-23T02:28:47.514Z,5.30
2018-12-23T02:31:15.024Z,4.40
2018-12-23T02:33:42.541Z,4.83
2018-12-23T02:36:10.053Z,4.87
2018-12-23T02:38:37.573Z,5.30
2018-12-23T02:41:05.695Z,5.03
2018-12-23T02:43:33.212Z,4.90
2018-12-23T02:46:01.446Z,5.20
2018-12-23T02:48:29.091Z,4.90
2018-12-23T02:50:56.859Z,5.40
2018-12-23T02:53:24.381Z,4.90
2018-12-23T02:55:51.911Z,5.47
2018-12-23T02:58:19.424Z,5.12
2018-12-23T03:00:46.952Z,5.50
2018-12-23T03:03:14.463Z,5.12
2018-12-23T03:05:43.958Z,4.85
2018-12-23T03:08:11.480Z,5.37
2018-12-23T03:10:38.993Z,5.47
2018-12-23T03:13:06.504Z,5.00
2018-12-23T03:15:34.007Z,5.47
2018-12-23T03:18:01.521Z,5.50
2018-12-23T03:20:29.029Z,5.67
2018-12-23T03:22:56.544Z,5.97
2018-12-23T03:25:24.046Z,4.97
2018-12-23T03:27:51.600Z,5.70
2018-12-23T03:30:19.111Z,5.55
2018-12-23T03:32:46.650Z,5.47
2018-12-23T03:35:15.009Z,5.10
2018-12-23T03:37:42.516Z,5.65
2018-12-23T03:40:10.768Z,5.80
2018-12-23T03:42:39.825Z,5.85
2018-12-23T03:45:08.245Z,5.50
2018-12-23T03:47:35.789Z,6.17
2018-12-23T03:50:04.654Z,7.42
2018-12-23T03:52:32.171Z,6.20
2018-12-23T03:55:00.268Z,6.90
2018-12-23T03:57:27.985Z,6.20
2018-12-23T03:59:55.679Z,6.22
2018-12-23T04:02:23.293Z,6.67
2018-12-23T04:04:51.037Z,6.80
2018-12-23T04:07:18.549Z,6.50
2018-12-23T04:09:46.060Z,6.80
2018-12-23T04:12:13.593Z,7.42
2018-12-23T04:14:41.107Z,6.83
2018-12-23T04:17:09.460Z,7.67
2018-12-23T04:19:36.968Z,7.50
2018-12-23T04:22:05.238Z,8.43
2018-12-23T04:24:32.740Z,7.58
2018-12-23T04:27:00.257Z,7.67
2018-12-23T04:29:28.085Z,7.83
2018-12-23T04:31:55.598Z,9.03
2018-12-23T04:34:23.182Z,8.15
2018-12-23T04:36:50.717Z,8.03
2018-12-23T04:39:19.027Z,8.65
2018-12-23T04:41:46.544Z,7.70
2018-12-23T04:44:14.478Z,7.90
2018-12-23T04:46:41.988Z,8.08
2018-12-23T04:49:10.078Z,7.58
2018-12-23T04:51:37.584Z,7.70
2018-12-23T04:54:05.107Z,7.00
2018-12-23T04:56:32.636Z,6.70
2018-12-23T04:59:00.144Z,7.12
2018-12-23T05:01:27.652Z,5.33
2018-12-23T05:03:55.166Z,4.80
2018-12-23T05:06:22.687Z,4.90
2018-12-23T05:08:50.198Z,5.20
2018-12-23T05:11:17.718Z,5.58
2018-12-23T05:13:45.277Z,5.17
2018-12-23T05:16:13.361Z,5.58
2018-12-23T05:18:42.341Z,5.83
2018-12-23T05:21:09.865Z,5.60
2018-12-23T05:23:37.397Z,5.95
2018-12-23T05:26:04.905Z,5.20
2018-12-23T05:28:32.422Z,6.03
2018-12-23T05:30:59.937Z,5.87
2018-12-23T05:33:27.444Z,6.05
2018-12-23T05:35:54.952Z,6.20
2018-12-23T05:38:23.254Z,5.50
2018-12-23T05:40:51.513Z,5.28
2018-12-23T05:43:19.232Z,5.92
2018-12-23T05:45:47.473Z,5.40
2018-12-23T05:48:14.989Z,6.55
2018-12-23T05:50:42.501Z,6.05
2018-12-23T05:53:10.775Z,6.40
2018-12-23T05:55:38.217Z,5.90
2018-12-23T05:58:05.981Z,6.20
2018-12-23T06:00:34.055Z,6.55
2018-12-23T06:03:01.568Z,5.60
2018-12-23T06:05:29.429Z,5.65
2018-12-23T06:07:56.945Z,5.83
2018-12-23T06:10:24.461Z,5.97
2018-12-23T06:12:51.973Z,6.17
2018-12-23T06:15:19.488Z,6.80
2018-12-23T06:17:47.014Z,5.25
2018-12-23T06:20:14.534Z,5.60
2018-12-23T06:22:42.046Z,4.58
2018-12-23T06:25:09.570Z,5.17
2018-12-23T06:27:37.083Z,5.80
2018-12-23T06:30:05.363Z,6.00
2018-12-23T06:32:33.148Z,5.92
2018-12-23T06:35:00.661Z,6.92
2018-12-23T06:37:29.542Z,6.72
2018-12-23T06:39:57.167Z,5.70
2018-12-23T06:42:24.676Z,6.87
2018-12-23T06:44:52.209Z,6.75
2018-12-23T06:47:20.116Z,6.05
2018-12-23T06:49:48.012Z,6.47
2018-12-23T06:52:15.552Z,7.10
2018-12-23T06:54:43.519Z,6.92
2018-12-23T06:57:11.041Z,7.30
2018-12-23T06:59:39.156Z,7.60
2018-12-23T07:02:06.665Z,7.83
2018-12-23T07:04:34.381Z,8.03
2018-12-23T07:07:01.996Z,7.60
2018-12-23T07:09:30.530Z,8.73
2018-12-23T07:11:58.568Z,8.93
2018-12-23T07:14:26.187Z,9.30
2018-12-23T07:16:54.205Z,10.05
2018-12-23T07:19:21.719Z,9.28
2018-12-23T07:21:50.377Z,8.98
2018-12-23T07:24:17.904Z,9.53
2018-12-23T07:26:45.421Z,9.38
2018-12-23T07:29:13.408Z,10.43
2018-12-23T07:31:40.921Z,9.85
2018-12-23T07:34:09.300Z,8.70
2018-12-23T07:36:36.814Z,10.68
2018-12-23T07:39:05.145Z,10.93
2018-12-23T07:41:33.452Z,9.80
2018-12-23T07:44:00.961Z,10.08
2018-12-23T07:46:29.060Z,9.85
2018-12-23T07:48:56.590Z,10.25
2018-12-23T07:51:24.255Z,9.78
2018-12-23T07:53:51.772Z,10.75
2018-12-23T07:56:19.284Z,10.35
2018-12-23T07:58:47.458Z,10.88
2018-12-23T08:01:16.431Z,10.75
2018-12-23T08:03:43.946Z,9.38
2018-12-23T08:06:11.457Z,9.75
2018-12-23T08:08:38.990Z,10.32
2018-12-23T08:11:06.496Z,10.32
2018-12-23T08:13:34.128Z,10.20
2018-12-23T08:16:07.226Z,8.75
2018-12-23T08:18:34.833Z,9.23
2018-12-23T08:21:02.808Z,9.98
2018-12-23T08:23:30.325Z,9.43
2018-12-23T08:25:58.145Z,9.90
2018-12-23T08:28:25.658Z,9.75
2018-12-23T08:30:53.768Z,9.88
2018-12-23T08:33:22.154Z,7.92
2018-12-23T08:35:49.671Z,8.28
2018-12-23T08:38:17.948Z,8.40
2018-12-23T08:40:45.456Z,9.65
2018-12-23T08:43:12.975Z,8.68
2018-12-23T08:45:41.757Z,7.20
2018-12-23T08:48:09.264Z,8.45
2018-12-23T08:50:37.168Z,7.97
2018-12-23T08:53:04.696Z,7.37
2018-12-23T08:55:32.800Z,8.65
2018-12-23T08:58:00.311Z,9.30
2018-12-23T09:03:01.459Z,8.05
2018-12-23T09:05:29.028Z,8.65
2018-12-23T09:07:57.077Z,8.78
2018-12-23T09:10:25.773Z,6.72
2018-12-23T09:12:53.304Z,8.28
2018-12-23T09:15:20.821Z,8.88
2018-12-23T09:17:48.426Z,7.70
2018-12-23T09:20:15.939Z,8.75
2018-12-23T09:22:43.441Z,7.65
2018-12-23T09:25:11.305Z,8.80
2018-12-23T09:27:38.818Z,8.85
2018-12-23T09:30:06.751Z,7.08
2018-12-23T09:32:34.256Z,7.80
2018-12-23T09:35:02.440Z,6.47
2018-12-23T09:37:29.940Z,5.50
2018-12-23T09:39:58.006Z,4.35
2018-12-23T09:42:25.508Z,4.15
2018-12-23T09:44:53.014Z,3.87
2018-12-23T09:47:20.516Z,3.00
2018-12-23T09:49:48.030Z,3.45
2018-12-23T09:52:15.553Z,4.37
2018-12-23T09:54:43.056Z,4.67
2018-12-23T09:57:10.597Z,5.55
2018-12-23T09:59:38.139Z,6.00
2018-12-23T10:02:05.645Z,5.72
2018-12-23T10:04:33.152Z,5.40
2018-12-23T10:07:01.308Z,5.85
2018-12-23T10:09:28.875Z,5.37
2018-12-23T10:11:56.734Z,5.87
2018-12-23T10:14:24.244Z,6.58
2018-12-23T10:16:52.816Z,6.17
2018-12-23T10:19:21.301Z,7.33
2018-12-23T10:21:48.809Z,7.03
2018-12-23T10:24:16.841Z,7.50
2018-12-23T10:26:44.540Z,7.03
2018-12-23T10:29:12.049Z,9.70
2018-12-23T10:31:39.560Z,9.13
2018-12-23T10:34:07.096Z,10.15
2018-12-23T10:36:34.763Z,9.45
2018-12-23T10:39:02.874Z,9.93
2018-12-23T10:41:31.578Z,8.53
2018-12-23T10:43:59.093Z,9.50
2018-12-23T10:46:26.853Z,7.97
2018-12-23T10:48:54.367Z,7.83
2018-12-23T10:51:22.316Z,6.83
2018-12-23T10:53:51.113Z,6.87
2018-12-23T10:56:18.656Z,6.30
2018-12-23T10:58:46.822Z,7.53
2018-12-23T11:01:14.400Z,10.20
2018-12-23T11:03:41.912Z,9.40
2018-12-23T11:06:09.425Z,8.78
2018-12-23T11:08:36.946Z,7.60
2018-12-23T11:11:04.462Z,6.70
2018-12-23T11:13:31.973Z,4.78
2018-12-23T11:15:59.485Z,5.28
2018-12-23T11:18:27.004Z,5.58
2018-12-23T11:20:54.516Z,6.72
2018-12-23T11:23:22.026Z,7.75
2018-12-23T11:25:50.751Z,4.70
2018-12-23T11:28:18.272Z,4.75
2018-12-23T11:30:46.548Z,4.83
2018-12-23T11:33:14.053Z,4.60
2018-12-23T11:35:41.557Z,5.12
2018-12-23T11:38:09.069Z,6.30
2018-12-23T11:40:36.585Z,6.05
2018-12-23T11:43:04.113Z,7.25
2018-12-23T11:45:32.024Z,7.00
2018-12-23T11:47:59.540Z,7.42
2018-12-23T11:50:27.050Z,6.95
2018-12-23T11:52:54.556Z,7.97
2018-12-23T11:55:23.024Z,6.58
2018-12-23T11:57:50.960Z,7.60
2018-12-23T12:00:18.469Z,7.15
2018-12-23T12:02:46.658Z,7.28
2018-12-23T12:05:14.172Z,8.13
2018-12-23T12:07:41.676Z,8.68
2018-12-23T12:10:09.229Z,7.45
2018-12-23T12:12:36.745Z,8.38
2018-12-23T12:15:04.388Z,9.10
2018-12-23T12:17:32.916Z,6.50
2018-12-23T12:20:00.773Z,6.60
2018-12-23T12:22:28.281Z,5.47
2018-12-23T12:24:56.212Z,6.78
2018-12-23T12:27:23.718Z,5.42
2018-12-23T12:29:51.393Z,6.33
2018-12-23T12:32:20.117Z,6.10
2018-12-23T12:34:47.624Z,6.03
2018-12-23T12:37:15.620Z,7.17
2018-12-23T12:39:43.151Z,7.47
2018-12-23T12:42:11.351Z,8.30
2018-12-23T12:44:38.862Z,7.37
2018-12-23T12:47:06.557Z,5.53
2018-12-23T12:49:34.081Z,4.78
2018-12-23T12:52:01.720Z,4.55
2018-12-23T12:54:29.869Z,4.10
2018-12-23T12:56:57.371Z,3.50
2018-12-23T12:59:25.302Z,4.25
2018-12-23T13:01:53.800Z,3.95
2018-12-23T13:04:21.384Z,4.60
2018-12-23T13:06:48.961Z,6.00
2018-12-23T13:09:16.483Z,6.47
2018-12-23T13:11:44.931Z,7.40
2018-12-23T13:14:12.441Z,6.85
2018-12-23T13:16:40.523Z,6.12
2018-12-23T13:19:08.028Z,6.00
2018-12-23T13:21:35.652Z,4.17
2018-12-23T13:24:03.185Z,3.65
2018-12-23T13:26:30.688Z,3.77
2018-12-23T13:28:58.192Z,4.00
2018-12-23T13:31:25.713Z,5.28
2018-12-23T13:33:53.395Z,4.97
2018-12-23T13:36:20.896Z,8.20
2018-12-23T13:38:48.416Z,7.25
2018-12-23T13:41:20.745Z,9.05
2018-12-23T13:47:49.153Z,8.05
2018-12-23T13:50:37.494Z,5.25
2018-12-23T13:53:18.382Z,5.70
2018-12-23T13:56:23.464Z,6.08
2018-12-23T13:59:28.737Z,7.75
2018-12-23T14:02:14.792Z,8.10
2018-12-23T14:04:46.430Z,8.08
2018-12-23T14:07:27.110Z,7.05
2018-12-23T14:10:16.424Z,7.00
2018-12-23T14:12:44.970Z,6.40
2018-12-23T14:15:13.836Z,6.50
2018-12-23T14:17:42.248Z,6.62
2018-12-23T14:20:10.660Z,6.80
2018-12-23T14:22:39.128Z,7.40
2018-12-23T14:25:07.509Z,6.22
2018-12-23T14:27:36.023Z,7.25
2018-12-23T14:30:06.126Z,8.23
2018-12-23T14:32:34.593Z,8.83
2018-12-23T14:35:03.097Z,9.43
2018-12-23T14:37:31.558Z,11.40
2018-12-23T14:40:00.013Z,8.33
2018-12-23T14:42:29.018Z,11.50
2018-12-23T14:44:57.618Z,15.20
2018-12-23T14:47:25.997Z,5.78
2018-12-23T14:49:54.492Z,6.25
2018-12-23T14:52:26.398Z,9.10
2018-12-23T14:54:54.782Z,12.82
2018-12-23T14:57:23.798Z,11.38
2018-12-23T14:59:52.192Z,9.08
2018-12-23T15:02:20.644Z,8.95
2018-12-23T15:04:49.059Z,8.95
2018-12-23T15:07:17.618Z,7.12
2018-12-23T15:09:46.063Z,6.35
2018-12-23T15:12:14.948Z,7.10
2018-12-23T15:14:43.317Z,7.45
2018-12-23T15:17:11.699Z,7.95
2018-12-23T15:19:40.245Z,8.65
2018-12-23T15:22:08.670Z,6.42
2018-12-23T15:24:37.661Z,7.80
2018-12-23T15:27:06.060Z,8.60
2018-12-23T15:29:34.481Z,8.00
2018-12-23T15:32:03.011Z,9.55
2018-12-23T15:34:31.483Z,7.60
2018-12-23T15:36:59.942Z,9.75
2018-12-23T15:39:28.425Z,11.20
2018-12-23T15:41:56.902Z,12.05
2018-12-23T15:44:25.281Z,11.97
2018-12-23T15:46:54.065Z,16.32
2018-12-23T15:49:22.594Z,14.40
2018-12-23T15:51:51.465Z,14.38
2018-12-23T15:54:19.924Z,15.53
2018-12-23T15:56:48.406Z,9.03
2018-12-23T15:59:16.866Z,10.80
2018-12-23T16:01:45.341Z,10.30
2018-12-23T16:04:13.830Z,11.22
2018-12-23T16:06:42.304Z,12.33
2018-12-23T16:09:11.144Z,12.25
2018-12-23T16:11:39.552Z,14.15
2018-12-23T16:14:08.009Z,12.73
2018-12-23T16:16:36.474Z,16.25
2018-12-23T16:19:05.426Z,14.50
2018-12-23T16:21:33.810Z,16.42
2018-12-23T16:24:02.274Z,17.27
2018-12-23T16:26:30.752Z,16.57
2018-12-23T16:28:59.146Z,17.73
2018-12-23T16:31:27.612Z,17.95
2018-12-23T16:33:56.113Z,19.98
2018-12-23T16:36:24.493Z,17.17
2018-12-23T16:38:52.959Z,17.85
2018-12-23T16:41:21.453Z,14.40
2018-12-23T16:43:49.828Z,14.28
2018-12-23T16:46:18.284Z,13.43
2018-12-23T16:48:46.774Z,10.80
2018-12-23T16:51:15.429Z,14.23
2018-12-23T16:53:43.905Z,14.23
2018-12-23T16:56:12.682Z,17.42
2018-12-23T16:58:43.029Z,15.72
2018-12-23T17:01:11.555Z,16.67
2018-12-23T17:03:40.045Z,15.28
2018-12-23T17:06:11.173Z,28.65
2018-12-23T17:08:39.666Z,27.73
2018-12-23T17:11:08.143Z,37.80
2018-12-23T17:13:36.610Z,55.60
2018-12-23T17:16:05.073Z,39.15
2018-12-23T17:18:33.488Z,35.35
2018-12-23T17:21:01.874Z,29.80
2018-12-23T17:23:30.338Z,21.60
2018-12-23T17:25:58.826Z,16.70
2018-12-23T17:28:28.230Z,13.43
2018-12-23T17:30:56.791Z,18.10
2018-12-23T17:33:28.714Z,12.50
2018-12-23T17:35:57.118Z,22.90
2018-12-23T17:38:25.500Z,31.07
2018-12-23T17:40:53.980Z,17.17
2018-12-23T17:43:22.513Z,31.05
2018-12-23T17:45:50.898Z,23.05
2018-12-23T17:48:19.390Z,23.05
2018-12-23T17:50:47.826Z,16.15
2018-12-23T17:53:35.737Z,14.83
2018-12-23T17:56:04.202Z,14.55
2018-12-23T17:58:32.585Z,22.20
2018-12-23T18:01:01.001Z,22.65
2018-12-23T18:03:29.383Z,18.98
2018-12-23T18:05:57.845Z,16.17
2018-12-23T18:08:26.251Z,10.43
2018-12-23T18:10:54.719Z,11.73
2018-12-23T18:13:23.207Z,13.28
2018-12-23T18:15:51.667Z,10.23
2018-12-23T18:18:20.131Z,11.18
2018-12-23T18:20:48.650Z,14.53
2018-12-23T18:23:17.601Z,13.08
2018-12-23T18:25:46.001Z,15.38
2018-12-23T18:28:14.468Z,14.35
2018-12-23T18:30:42.958Z,13.60
2018-12-23T18:33:11.347Z,12.70
2018-12-23T18:35:39.910Z,10.05
2018-12-23T18:38:08.305Z,8.58
2018-12-23T18:40:36.690Z,9.23
2018-12-23T18:43:05.070Z,9.35
2018-12-23T18:45:33.558Z,10.50
2018-12-23T18:48:02.017Z,7.62
2018-12-23T18:50:30.407Z,6.37
2018-12-23T18:52:58.888Z,8.15
2018-12-23T18:55:28.388Z,7.95
2018-12-23T18:57:56.851Z,8.00
2018-12-23T19:00:25.338Z,8.20
2018-12-23T19:02:53.792Z,7.37
2018-12-23T19:05:22.178Z,6.15
2018-12-23T19:07:50.666Z,7.80
2018-12-23T19:10:25.096Z,8.00
2018-12-23T19:13:22.665Z,9.73
2018-12-23T19:15:54.389Z,7.80
2018-12-23T19:18:40.876Z,8.35
2018-12-23T19:21:18.140Z,9.00
2018-12-23T19:23:55.901Z,9.60
2018-12-23T19:26:49.884Z,29.63
2018-12-23T19:29:27.442Z,11.20
2018-12-23T19:32:16.969Z,8.58
2018-12-23T19:35:14.221Z,11.65
2018-12-23T19:38:00.920Z,12.47
2018-12-23T19:40:50.697Z,17.17
2018-12-23T19:43:38.665Z,22.45
2018-12-23T19:46:16.301Z,17.60
2018-12-23T19:49:05.973Z,16.52
2018-12-23T19:51:43.465Z,14.53
2018-12-23T19:54:42.181Z,13.85
2018-12-23T19:57:22.836Z,16.85
2018-12-23T20:00:00.364Z,16.70
2018-12-23T20:02:32.493Z,18.48
2018-12-23T20:05:16.209Z,22.52
2018-12-23T20:07:48.260Z,21.40
2018-12-23T20:10:22.690Z,23.05
2018-12-23T20:13:09.165Z,21.80
2018-12-23T20:15:55.367Z,19.75
2018-12-23T20:18:32.947Z,27.22
2018-12-23T20:21:07.153Z,20.65
2018-12-23T20:23:59.980Z,18.87
2018-12-23T20:26:34.212Z,13.48
2018-12-23T20:29:11.817Z,15.40
2018-12-23T20:31:58.630Z,17.98
2018-12-23T20:34:36.321Z,15.70
2018-12-23T20:37:20.050Z,12.95
2018-12-23T20:40:00.642Z,12.63
2018-12-23T20:42:47.604Z,13.85
2018-12-23T20:45:36.340Z,15.45
2018-12-23T20:48:11.025Z,15.65
2018-12-23T20:50:54.550Z,16.48
2018-12-23T20:53:56.795Z,15.88
2018-12-23T20:56:37.006Z,14.87
2018-12-23T20:59:23.585Z,15.20
2018-12-23T21:02:04.048Z,16.20
2018-12-23T21:04:44.772Z,17.15
2018-12-23T21:07:37.882Z,15.93
2018-12-23T21:10:28.666Z,17.00
2018-12-23T21:13:21.109Z,17.70
2018-12-23T21:16:14.042Z,18.32
2018-12-23T21:18:52.038Z,19.23
2018-12-23T21:21:45.006Z,18.02
2018-12-23T21:24:25.965Z,15.20
2018-12-23T21:27:06.672Z,16.62
2018-12-23T21:29:46.644Z,16.23
2018-12-23T21:32:21.249Z,13.65
2018-12-23T21:35:26.494Z,12.70
2018-12-23T21:38:24.059Z,14.40
2018-12-23T21:41:15.723Z,12.98
2018-12-23T21:44:02.350Z,18.02
2018-12-23T21:46:49.089Z,15.45
2018-12-23T21:49:29.765Z,16.27
2018-12-23T21:52:22.661Z,18.17
2018-12-23T21:55:15.632Z,13.85
2018-12-23T21:57:47.403Z,12.07
2018-12-23T22:00:24.951Z,12.93
2018-12-23T22:02:59.636Z,9.13
2018-12-23T22:05:56.302Z,9.53
2018-12-23T22:08:49.051Z,9.98
2018-12-23T22:11:23.662Z,9.88
2018-12-23T22:13:52.131Z,10.15
2018-12-23T22:16:20.554Z,9.20
2018-12-23T22:18:49.014Z,8.38
2018-12-23T22:21:17.481Z,8.70
2018-12-23T22:23:46.352Z,8.73
2018-12-23T22:26:14.842Z,8.83
2018-12-23T22:28:43.288Z,9.05
2018-12-23T22:31:11.769Z,9.20
2018-12-23T22:33:40.233Z,8.25
2018-12-23T22:36:08.629Z,8.33
2018-12-23T22:38:37.245Z,7.83
2018-12-23T22:41:06.146Z,7.42
2018-12-23T22:43:34.604Z,8.58
2018-12-23T22:46:03.096Z,8.93
2018-12-23T22:48:31.480Z,9.05
2018-12-23T22:50:59.940Z,9.00
2018-12-23T22:53:28.433Z,8.23
2018-12-23T22:55:56.917Z,9.13
2018-12-23T22:58:25.378Z,9.03
2018-12-23T23:00:53.861Z,9.98
2018-12-23T23:03:22.529Z,9.93
2018-12-23T23:05:51.033Z,9.35
2018-12-23T23:08:19.956Z,9.15
2018-12-23T23:10:48.414Z,9.33
2018-12-23T23:13:18.789Z,8.28
2018-12-23T23:15:47.984Z,8.60
2018-12-23T23:18:16.440Z,8.30
2018-12-23T23:20:44.846Z,9.30
2018-12-23T23:23:13.253Z,8.08
2018-12-23T23:25:41.782Z,8.25
2018-12-23T23:28:10.162Z,7.90
2018-12-23T23:30:38.649Z,7.75
2018-12-23T23:33:07.025Z,6.42
2018-12-23T23:35:35.610Z,6.60
2018-12-23T23:38:04.606Z,7.72
2018-12-23T23:40:33.070Z,7.05
2018-12-23T23:43:01.533Z,6.40
2018-12-23T23:45:30.072Z,6.47
2018-12-23T23:47:58.564Z,6.70
2018-12-23T23:50:27.015Z,7.92
2018-12-23T23:52:55.498Z,7.20
2018-12-23T23:55:23.881Z,6.22
2018-12-23T23:57:52.337Z,6.25
